sensor_id;sensor_type;location;lat;lon;timestamp;pressure;altitude;pressure_sealevel;temperature;humidity
3748;BME280;1889;50.058;8.688;2023-12-20T00:01:24;100241.86;;;8.20;90.99
3748;BME280;1889;50.058;8.688;2023-12-20T00:03:54;100231.29;;;8.37;89.54
3748;BME280;1889;50.058;8.688;2023-12-20T00:06:24;100233.59;;;8.18;91.01
3748;BME280;1889;50.058;8.688;2023-12-20T00:08:54;100230.78;;;8.48;90.70
3748;BME280;1889;50.058;8.688;2023-12-20T00:11:23;100232.09;;;8.50;89.60
3748;BME280;1889;50.058;8.688;2023-12-20T00:13:53;100227.23;;;8.52;89.94
3748;BME280;1889;50.058;8.688;2023-12-20T00:16:23;100217.73;;;8.40;89.62
3748;BME280;1889;50.058;8.688;2023-12-20T00:18:52;100219.23;;;8.69;89.38
3748;BME280;1889;50.058;8.688;2023-12-20T00:21:22;100222.91;;;8.50;88.73
3748;BME280;1889;50.058;8.688;2023-12-20T00:23:52;100224.22;;;8.51;89.54
3748;BME280;1889;50.058;8.688;2023-12-20T00:26:22;100228.77;;;8.79;89.08
3748;BME280;1889;50.058;8.688;2023-12-20T00:28:51;100212.91;;;8.43;87.20
3748;BME280;1889;50.058;8.688;2023-12-20T00:31:43;100216.48;;;8.33;89.03
3748;BME280;1889;50.058;8.688;2023-12-20T00:34:13;100204.55;;;8.50;88.36
3748;BME280;1889;50.058;8.688;2023-12-20T00:36:43;100206.11;;;8.70;88.17
3748;BME280;1889;50.058;8.688;2023-12-20T00:39:13;100200.94;;;8.61;86.60
3748;BME280;1889;50.058;8.688;2023-12-20T00:41:42;100207.69;;;8.38;87.20
3748;BME280;1889;50.058;8.688;2023-12-20T00:44:12;100196.41;;;8.23;89.45
3748;BME280;1889;50.058;8.688;2023-12-20T00:46:42;100198.02;;;8.43;88.92
3748;BME280;1889;50.058;8.688;2023-12-20T00:49:11;100192.33;;;8.46;87.87
3748;BME280;1889;50.058;8.688;2023-12-20T00:51:41;100196.75;;;8.40;87.55
3748;BME280;1889;50.058;8.688;2023-12-20T00:54:11;100194.19;;;8.33;87.91
3748;BME280;1889;50.058;8.688;2023-12-20T00:56:40;100193.55;;;8.59;88.70
3748;BME280;1889;50.058;8.688;2023-12-20T00:59:10;100191.77;;;8.60;87.68
3748;BME280;1889;50.058;8.688;2023-12-20T01:01:40;100188.95;;;8.83;87.44
3748;BME280;1889;50.058;8.688;2023-12-20T01:04:13;100192.11;;;8.71;87.17
3748;BME280;1889;50.058;8.688;2023-12-20T01:06:43;100187.08;;;8.92;87.44
3748;BME280;1889;50.058;8.688;2023-12-20T01:09:12;100191.88;;;8.96;86.52
3748;BME280;1889;50.058;8.688;2023-12-20T01:11:42;100185.76;;;8.49;86.75
3748;BME280;1889;50.058;8.688;2023-12-20T01:14:12;100178.84;;;8.38;87.57
3748;BME280;1889;50.058;8.688;2023-12-20T01:16:48;100180.52;;;8.49;88.94
3748;BME280;1889;50.058;8.688;2023-12-20T01:19:17;100181.38;;;8.51;87.37
3748;BME280;1889;50.058;8.688;2023-12-20T01:21:47;100179.41;;;8.74;87.72
3748;BME280;1889;50.058;8.688;2023-12-20T01:24:17;100180.45;;;8.55;87.61
3748;BME280;1889;50.058;8.688;2023-12-20T01:26:50;100176.83;;;8.68;87.85
3748;BME280;1889;50.058;8.688;2023-12-20T01:29:20;100176.66;;;8.85;87.72
3748;BME280;1889;50.058;8.688;2023-12-20T01:32:02;100172.73;;;8.85;86.55
3748;BME280;1889;50.058;8.688;2023-12-20T01:34:28;100172.05;;;8.67;87.26
3748;BME280;1889;50.058;8.688;2023-12-20T01:36:58;100175.70;;;8.50;87.59
3748;BME280;1889;50.058;8.688;2023-12-20T01:39:28;100183.22;;;8.36;88.57
3748;BME280;1889;50.058;8.688;2023-12-20T01:41:58;100181.03;;;8.36;89.06
3748;BME280;1889;50.058;8.688;2023-12-20T01:44:31;100184.30;;;8.67;87.90
3748;BME280;1889;50.058;8.688;2023-12-20T01:47:00;100177.47;;;8.46;87.69
3748;BME280;1889;50.058;8.688;2023-12-20T01:49:30;100172.44;;;8.71;87.95
3748;BME280;1889;50.058;8.688;2023-12-20T01:52:03;100173.52;;;8.93;87.39
3748;BME280;1889;50.058;8.688;2023-12-20T01:54:33;100182.17;;;9.02;87.32
3748;BME280;1889;50.058;8.688;2023-12-20T01:57:07;100175.51;;;9.13;87.35
3748;BME280;1889;50.058;8.688;2023-12-20T01:59:44;100186.28;;;8.86;86.15
3748;BME280;1889;50.058;8.688;2023-12-20T02:02:14;100187.43;;;8.59;86.75
3748;BME280;1889;50.058;8.688;2023-12-20T02:04:44;100188.47;;;8.85;86.52
3748;BME280;1889;50.058;8.688;2023-12-20T02:07:14;100194.08;;;8.93;86.19
3748;BME280;1889;50.058;8.688;2023-12-20T02:09:44;100192.53;;;8.75;84.63
3748;BME280;1889;50.058;8.688;2023-12-20T02:12:13;100189.91;;;8.74;86.12
3748;BME280;1889;50.058;8.688;2023-12-20T02:14:43;100182.94;;;8.70;85.55
3748;BME280;1889;50.058;8.688;2023-12-20T02:17:13;100186.72;;;8.85;85.16
3748;BME280;1889;50.058;8.688;2023-12-20T02:19:45;100191.89;;;8.93;84.58
3748;BME280;1889;50.058;8.688;2023-12-20T02:22:15;100175.16;;;9.06;84.53
3748;BME280;1889;50.058;8.688;2023-12-20T02:24:44;100168.66;;;8.53;84.81
3748;BME280;1889;50.058;8.688;2023-12-20T02:27:15;100188.01;;;8.90;85.32
3748;BME280;1889;50.058;8.688;2023-12-20T02:29:47;100177.88;;;8.97;84.20
3748;BME280;1889;50.058;8.688;2023-12-20T02:32:17;100184.14;;;8.32;87.06
3748;BME280;1889;50.058;8.688;2023-12-20T02:34:48;100166.97;;;8.46;86.90
3748;BME280;1889;50.058;8.688;2023-12-20T02:37:17;100171.29;;;8.52;86.74
3748;BME280;1889;50.058;8.688;2023-12-20T02:39:47;100162.75;;;8.76;86.21
3748;BME280;1889;50.058;8.688;2023-12-20T02:42:16;100163.39;;;8.58;86.20
3748;BME280;1889;50.058;8.688;2023-12-20T02:44:45;100168.21;;;8.55;86.50
3748;BME280;1889;50.058;8.688;2023-12-20T02:47:26;100175.64;;;8.54;85.64
3748;BME280;1889;50.058;8.688;2023-12-20T02:50:01;100169.66;;;8.85;85.52
3748;BME280;1889;50.058;8.688;2023-12-20T02:52:31;100176.63;;;8.91;85.47
3748;BME280;1889;50.058;8.688;2023-12-20T02:55:00;100164.39;;;8.90;84.76
3748;BME280;1889;50.058;8.688;2023-12-20T02:57:29;100169.45;;;9.08;84.48
3748;BME280;1889;50.058;8.688;2023-12-20T02:59:58;100164.64;;;9.07;84.52
3748;BME280;1889;50.058;8.688;2023-12-20T03:02:28;100155.28;;;9.21;84.49
3748;BME280;1889;50.058;8.688;2023-12-20T03:04:57;100160.08;;;9.23;84.44
3748;BME280;1889;50.058;8.688;2023-12-20T03:07:28;100169.91;;;9.04;83.80
3748;BME280;1889;50.058;8.688;2023-12-20T03:09:58;100175.44;;;9.17;84.23
3748;BME280;1889;50.058;8.688;2023-12-20T03:12:27;100181.56;;;9.18;84.05
3748;BME280;1889;50.058;8.688;2023-12-20T03:14:56;100180.03;;;9.38;82.75
3748;BME280;1889;50.058;8.688;2023-12-20T03:17:25;100179.94;;;9.45;82.53
3748;BME280;1889;50.058;8.688;2023-12-20T03:19:55;100174.71;;;9.42;82.09
3748;BME280;1889;50.058;8.688;2023-12-20T03:22:24;100170.17;;;9.21;82.06
3748;BME280;1889;50.058;8.688;2023-12-20T03:24:53;100172.09;;;9.41;82.44
3748;BME280;1889;50.058;8.688;2023-12-20T03:27:23;100175.46;;;9.53;82.21
3748;BME280;1889;50.058;8.688;2023-12-20T03:29:52;100179.61;;;9.37;82.43
3748;BME280;1889;50.058;8.688;2023-12-20T03:32:21;100179.98;;;9.03;82.31
3748;BME280;1889;50.058;8.688;2023-12-20T03:34:51;100181.55;;;9.21;82.69
3748;BME280;1889;50.058;8.688;2023-12-20T03:37:21;100192.83;;;9.29;81.89
3748;BME280;1889;50.058;8.688;2023-12-20T03:39:50;100195.83;;;9.33;81.65
3748;BME280;1889;50.058;8.688;2023-12-20T03:42:19;100194.52;;;8.93;82.97
3748;BME280;1889;50.058;8.688;2023-12-20T03:44:49;100193.20;;;8.93;83.67
3748;BME280;1889;50.058;8.688;2023-12-20T03:47:18;100202.66;;;9.10;82.63
3748;BME280;1889;50.058;8.688;2023-12-20T03:49:47;100202.58;;;9.16;82.02
3748;BME280;1889;50.058;8.688;2023-12-20T03:52:17;100211.30;;;9.22;81.87
3748;BME280;1889;50.058;8.688;2023-12-20T03:54:46;100206.81;;;9.31;81.68
3748;BME280;1889;50.058;8.688;2023-12-20T03:57:16;100207.55;;;9.03;82.15
3748;BME280;1889;50.058;8.688;2023-12-20T03:59:45;100215.34;;;9.09;82.40
3748;BME280;1889;50.058;8.688;2023-12-20T04:02:15;100210.00;;;9.18;82.18
3748;BME280;1889;50.058;8.688;2023-12-20T04:04:46;100216.97;;;9.24;81.40
3748;BME280;1889;50.058;8.688;2023-12-20T04:07:15;100213.84;;;9.29;81.62
3748;BME280;1889;50.058;8.688;2023-12-20T04:09:44;100219.02;;;9.34;81.34
3748;BME280;1889;50.058;8.688;2023-12-20T04:12:15;100211.50;;;9.41;81.18
3748;BME280;1889;50.058;8.688;2023-12-20T04:14:44;100224.14;;;9.47;81.06
3748;BME280;1889;50.058;8.688;2023-12-20T04:17:14;100221.95;;;9.47;80.93
3748;BME280;1889;50.058;8.688;2023-12-20T04:19:44;100221.42;;;9.55;80.85
3748;BME280;1889;50.058;8.688;2023-12-20T04:22:13;100224.50;;;9.53;80.41
3748;BME280;1889;50.058;8.688;2023-12-20T04:24:43;100222.64;;;9.63;80.27
3748;BME280;1889;50.058;8.688;2023-12-20T04:27:12;100220.81;;;9.68;79.99
3748;BME280;1889;50.058;8.688;2023-12-20T04:29:41;100228.67;;;9.71;79.85
3748;BME280;1889;50.058;8.688;2023-12-20T04:32:11;100222.30;;;9.54;79.79
3748;BME280;1889;50.058;8.688;2023-12-20T04:34:40;100231.86;;;9.60;80.04
3748;BME280;1889;50.058;8.688;2023-12-20T04:37:09;100228.90;;;9.51;80.16
3748;BME280;1889;50.058;8.688;2023-12-20T04:39:39;100236.26;;;9.57;79.89
3748;BME280;1889;50.058;8.688;2023-12-20T04:42:09;100230.56;;;9.58;79.95
3748;BME280;1889;50.058;8.688;2023-12-20T04:44:39;100234.33;;;9.36;81.20
3748;BME280;1889;50.058;8.688;2023-12-20T04:47:08;100240.96;;;9.31;81.61
3748;BME280;1889;50.058;8.688;2023-12-20T04:49:37;100247.20;;;9.57;81.19
3748;BME280;1889;50.058;8.688;2023-12-20T04:52:07;100248.86;;;9.66;80.86
3748;BME280;1889;50.058;8.688;2023-12-20T04:54:36;100245.11;;;9.49;80.69
3748;BME280;1889;50.058;8.688;2023-12-20T04:57:05;100248.59;;;9.52;80.65
3748;BME280;1889;50.058;8.688;2023-12-20T04:59:35;100243.34;;;9.52;80.11
3748;BME280;1889;50.058;8.688;2023-12-20T05:02:04;100246.42;;;9.49;80.30
3748;BME280;1889;50.058;8.688;2023-12-20T05:04:33;100247.30;;;9.49;80.06
3748;BME280;1889;50.058;8.688;2023-12-20T05:07:03;100250.44;;;9.43;80.08
3748;BME280;1889;50.058;8.688;2023-12-20T05:09:33;100251.81;;;9.40;80.41
3748;BME280;1889;50.058;8.688;2023-12-20T05:12:02;100252.62;;;9.45;80.00
3748;BME280;1889;50.058;8.688;2023-12-20T05:14:31;100257.97;;;9.36;80.12
3748;BME280;1889;50.058;8.688;2023-12-20T05:17:01;100263.92;;;9.09;80.96
3748;BME280;1889;50.058;8.688;2023-12-20T05:19:31;100273.52;;;9.13;80.82
3748;BME280;1889;50.058;8.688;2023-12-20T05:22:02;100273.17;;;9.03;81.53
3748;BME280;1889;50.058;8.688;2023-12-20T05:24:32;100281.91;;;9.05;81.44
3748;BME280;1889;50.058;8.688;2023-12-20T05:27:01;100275.36;;;9.02;81.55
3748;BME280;1889;50.058;8.688;2023-12-20T05:29:30;100281.56;;;8.92;82.04
3748;BME280;1889;50.058;8.688;2023-12-20T05:31:59;100285.06;;;8.94;82.07
3748;BME280;1889;50.058;8.688;2023-12-20T05:34:29;100285.48;;;8.95;82.20
3748;BME280;1889;50.058;8.688;2023-12-20T05:36:58;100283.72;;;8.99;82.18
3748;BME280;1889;50.058;8.688;2023-12-20T05:39:27;100292.55;;;8.89;82.42
3748;BME280;1889;50.058;8.688;2023-12-20T05:41:59;100294.80;;;8.83;82.32
3748;BME280;1889;50.058;8.688;2023-12-20T05:44:28;100307.98;;;8.72;83.38
3748;BME280;1889;50.058;8.688;2023-12-20T05:46:57;100306.74;;;8.60;83.84
3748;BME280;1889;50.058;8.688;2023-12-20T05:49:26;100299.68;;;8.71;83.46
3748;BME280;1889;50.058;8.688;2023-12-20T05:51:56;100297.48;;;8.74;83.36
3748;BME280;1889;50.058;8.688;2023-12-20T05:54:25;100292.20;;;8.77;83.21
3748;BME280;1889;50.058;8.688;2023-12-20T05:56:54;100294.11;;;8.57;83.12
3748;BME280;1889;50.058;8.688;2023-12-20T05:59:24;100284.05;;;8.56;83.66
3748;BME280;1889;50.058;8.688;2023-12-20T06:01:53;100280.50;;;8.65;83.48
3748;BME280;1889;50.058;8.688;2023-12-20T06:04:22;100286.68;;;8.56;82.58
3748;BME280;1889;50.058;8.688;2023-12-20T06:06:51;100295.59;;;8.26;81.65
3748;BME280;1889;50.058;8.688;2023-12-20T06:09:21;100301.67;;;8.28;83.45
3748;BME280;1889;50.058;8.688;2023-12-20T06:11:50;100303.78;;;8.50;82.62
3748;BME280;1889;50.058;8.688;2023-12-20T06:14:19;100302.38;;;8.61;82.05
3748;BME280;1889;50.058;8.688;2023-12-20T06:16:49;100310.63;;;8.68;81.53
3748;BME280;1889;50.058;8.688;2023-12-20T06:19:18;100320.93;;;8.24;79.60
3748;BME280;1889;50.058;8.688;2023-12-20T06:21:47;100324.03;;;8.16;81.77
3748;BME280;1889;50.058;8.688;2023-12-20T06:24:17;100322.03;;;7.67;81.52
3748;BME280;1889;50.058;8.688;2023-12-20T06:26:46;100333.73;;;7.87;81.94
3748;BME280;1889;50.058;8.688;2023-12-20T06:29:15;100336.33;;;7.99;81.36
3748;BME280;1889;50.058;8.688;2023-12-20T06:31:45;100331.42;;;8.20;80.90
3748;BME280;1889;50.058;8.688;2023-12-20T06:34:14;100332.73;;;8.23;80.62
3748;BME280;1889;50.058;8.688;2023-12-20T06:36:43;100338.55;;;7.92;81.27
3748;BME280;1889;50.058;8.688;2023-12-20T06:39:13;100322.72;;;8.18;81.27
3748;BME280;1889;50.058;8.688;2023-12-20T06:41:42;100319.61;;;8.32;80.69
3748;BME280;1889;50.058;8.688;2023-12-20T06:44:11;100312.08;;;8.50;79.84
3748;BME280;1889;50.058;8.688;2023-12-20T06:46:41;100316.84;;;8.58;79.06
3748;BME280;1889;50.058;8.688;2023-12-20T06:49:10;100325.58;;;8.58;79.18
3748;BME280;1889;50.058;8.688;2023-12-20T06:51:40;100325.59;;;8.52;79.16
3748;BME280;1889;50.058;8.688;2023-12-20T06:54:09;100323.40;;;8.56;79.02
3748;BME280;1889;50.058;8.688;2023-12-20T06:56:38;100329.91;;;8.64;78.16
3748;BME280;1889;50.058;8.688;2023-12-20T06:59:09;100320.73;;;8.61;77.82
3748;BME280;1889;50.058;8.688;2023-12-20T07:01:38;100319.84;;;8.66;76.60
3748;BME280;1889;50.058;8.688;2023-12-20T07:04:08;100323.06;;;8.40;77.54
3748;BME280;1889;50.058;8.688;2023-12-20T07:06:37;100327.78;;;8.53;76.41
3748;BME280;1889;50.058;8.688;2023-12-20T07:09:06;100341.86;;;8.39;76.19
3748;BME280;1889;50.058;8.688;2023-12-20T07:11:36;100338.84;;;8.32;75.55
3748;BME280;1889;50.058;8.688;2023-12-20T07:14:05;100334.95;;;8.17;76.87
3748;BME280;1889;50.058;8.688;2023-12-20T07:16:34;100340.59;;;8.32;76.32
3748;BME280;1889;50.058;8.688;2023-12-20T07:19:04;100339.23;;;8.43;76.36
3748;BME280;1889;50.058;8.688;2023-12-20T07:21:33;100347.11;;;8.29;76.22
3748;BME280;1889;50.058;8.688;2023-12-20T07:24:03;100351.83;;;8.52;75.87
3748;BME280;1889;50.058;8.688;2023-12-20T07:26:32;100356.28;;;8.38;75.33
3748;BME280;1889;50.058;8.688;2023-12-20T07:29:02;100361.00;;;8.55;75.59
3748;BME280;1889;50.058;8.688;2023-12-20T07:31:32;100364.05;;;8.56;75.48
3748;BME280;1889;50.058;8.688;2023-12-20T07:34:01;100360.89;;;8.73;74.60
3748;BME280;1889;50.058;8.688;2023-12-20T07:36:31;100353.80;;;8.86;74.47
3748;BME280;1889;50.058;8.688;2023-12-20T07:39:00;100366.08;;;8.83;74.32
3748;BME280;1889;50.058;8.688;2023-12-20T07:41:29;100364.19;;;8.23;75.80
3748;BME280;1889;50.058;8.688;2023-12-20T07:43:58;100361.91;;;8.50;75.28
3748;BME280;1889;50.058;8.688;2023-12-20T07:46:28;100354.00;;;8.54;74.90
3748;BME280;1889;50.058;8.688;2023-12-20T07:48:57;100354.88;;;8.56;74.81
3748;BME280;1889;50.058;8.688;2023-12-20T07:51:26;100364.00;;;8.67;74.69
3748;BME280;1889;50.058;8.688;2023-12-20T07:53:56;100366.16;;;8.69;74.29
3748;BME280;1889;50.058;8.688;2023-12-20T07:56:25;100380.63;;;8.64;73.93
3748;BME280;1889;50.058;8.688;2023-12-20T07:58:54;100378.09;;;8.51;73.47
3748;BME280;1889;50.058;8.688;2023-12-20T08:01:24;100374.16;;;8.49;73.32
3748;BME280;1889;50.058;8.688;2023-12-20T08:03:53;100379.36;;;8.52;73.81
3748;BME280;1889;50.058;8.688;2023-12-20T08:06:23;100378.45;;;8.61;73.15
3748;BME280;1889;50.058;8.688;2023-12-20T08:08:52;100372.27;;;8.71;73.56
3748;BME280;1889;50.058;8.688;2023-12-20T08:11:21;100378.39;;;8.68;73.00
3748;BME280;1889;50.058;8.688;2023-12-20T08:13:50;100383.30;;;8.54;73.07
3748;BME280;1889;50.058;8.688;2023-12-20T08:16:20;100382.38;;;8.62;73.49
3748;BME280;1889;50.058;8.688;2023-12-20T08:18:50;100387.57;;;8.71;73.08
3748;BME280;1889;50.058;8.688;2023-12-20T08:21:19;100381.40;;;8.80;72.51
3748;BME280;1889;50.058;8.688;2023-12-20T08:23:50;100387.14;;;8.72;72.75
3748;BME280;1889;50.058;8.688;2023-12-20T08:26:20;100382.70;;;8.82;72.62
3748;BME280;1889;50.058;8.688;2023-12-20T08:28:51;100389.31;;;8.74;72.43
3748;BME280;1889;50.058;8.688;2023-12-20T08:31:21;100391.03;;;8.76;72.76
3748;BME280;1889;50.058;8.688;2023-12-20T08:33:50;100384.08;;;8.69;72.69
3748;BME280;1889;50.058;8.688;2023-12-20T08:36:22;100396.84;;;8.58;73.15
3748;BME280;1889;50.058;8.688;2023-12-20T08:38:51;100393.78;;;8.57;72.81
3748;BME280;1889;50.058;8.688;2023-12-20T08:41:21;100388.09;;;8.59;72.86
3748;BME280;1889;50.058;8.688;2023-12-20T08:43:50;100386.40;;;8.44;73.19
3748;BME280;1889;50.058;8.688;2023-12-20T08:46:19;100388.14;;;8.51;73.16
3748;BME280;1889;50.058;8.688;2023-12-20T08:48:49;100393.03;;;8.32;74.00
3748;BME280;1889;50.058;8.688;2023-12-20T08:51:18;100395.14;;;8.51;74.03
3748;BME280;1889;50.058;8.688;2023-12-20T08:53:47;100391.60;;;8.53;73.81
3748;BME280;1889;50.058;8.688;2023-12-20T08:56:17;100392.55;;;8.38;74.09
3748;BME280;1889;50.058;8.688;2023-12-20T08:58:47;100389.37;;;8.60;73.71
3748;BME280;1889;50.058;8.688;2023-12-20T09:01:16;100392.39;;;8.69;73.40
3748;BME280;1889;50.058;8.688;2023-12-20T09:03:46;100385.43;;;8.66;73.59
3748;BME280;1889;50.058;8.688;2023-12-20T09:06:15;100389.81;;;8.63;73.56
3748;BME280;1889;50.058;8.688;2023-12-20T09:08:44;100392.95;;;8.46;74.23
3748;BME280;1889;50.058;8.688;2023-12-20T09:11:14;100392.52;;;8.48;74.11
3748;BME280;1889;50.058;8.688;2023-12-20T09:13:43;100393.39;;;8.45;74.05
3748;BME280;1889;50.058;8.688;2023-12-20T09:16:12;100390.33;;;8.46;73.87
3748;BME280;1889;50.058;8.688;2023-12-20T09:18:44;100385.04;;;8.56;74.00
3748;BME280;1889;50.058;8.688;2023-12-20T09:21:13;100388.05;;;8.66;73.82
3748;BME280;1889;50.058;8.688;2023-12-20T09:23:42;100388.58;;;8.51;73.86
3748;BME280;1889;50.058;8.688;2023-12-20T09:26:12;100387.17;;;8.67;74.04
3748;BME280;1889;50.058;8.688;2023-12-20T09:28:41;100388.14;;;8.45;74.23
3748;BME280;1889;50.058;8.688;2023-12-20T09:31:10;100395.02;;;8.69;73.90
3748;BME280;1889;50.058;8.688;2023-12-20T09:33:39;100393.25;;;8.75;73.33
3748;BME280;1889;50.058;8.688;2023-12-20T09:36:09;100395.30;;;8.93;73.18
3748;BME280;1889;50.058;8.688;2023-12-20T09:38:39;100401.08;;;8.83;73.23
3748;BME280;1889;50.058;8.688;2023-12-20T09:41:08;100395.34;;;8.88;72.90
3748;BME280;1889;50.058;8.688;2023-12-20T09:43:38;100395.05;;;8.67;73.24
3748;BME280;1889;50.058;8.688;2023-12-20T09:46:09;100394.47;;;8.88;73.40
3748;BME280;1889;50.058;8.688;2023-12-20T09:48:40;100390.30;;;9.19;72.55
3748;BME280;1889;50.058;8.688;2023-12-20T09:51:10;100397.28;;;9.24;71.79
3748;BME280;1889;50.058;8.688;2023-12-20T09:53:40;100392.98;;;9.12;72.43
3748;BME280;1889;50.058;8.688;2023-12-20T09:56:11;100396.09;;;9.07;72.75
3748;BME280;1889;50.058;8.688;2023-12-20T09:58:41;100395.86;;;9.34;71.89
3748;BME280;1889;50.058;8.688;2023-12-20T10:01:11;100397.09;;;9.46;71.64
3748;BME280;1889;50.058;8.688;2023-12-20T10:03:41;100395.66;;;9.57;71.19
3748;BME280;1889;50.058;8.688;2023-12-20T10:06:11;100402.30;;;9.49;70.90
3748;BME280;1889;50.058;8.688;2023-12-20T10:08:41;100394.85;;;9.49;71.58
3748;BME280;1889;50.058;8.688;2023-12-20T10:11:10;100393.95;;;9.54;70.92
3748;BME280;1889;50.058;8.688;2023-12-20T10:13:40;100399.42;;;9.27;70.66
3748;BME280;1889;50.058;8.688;2023-12-20T10:16:10;100392.64;;;9.54;71.02
3748;BME280;1889;50.058;8.688;2023-12-20T10:18:39;100385.91;;;9.70;70.80
3748;BME280;1889;50.058;8.688;2023-12-20T10:21:09;100384.86;;;9.87;70.17
3748;BME280;1889;50.058;8.688;2023-12-20T10:23:39;100383.11;;;9.88;69.99
3748;BME280;1889;50.058;8.688;2023-12-20T10:26:09;100378.22;;;9.92;69.89
3748;BME280;1889;50.058;8.688;2023-12-20T10:28:40;100380.91;;;9.89;69.83
3748;BME280;1889;50.058;8.688;2023-12-20T10:31:09;100379.25;;;9.79;70.42
3748;BME280;1889;50.058;8.688;2023-12-20T10:33:40;100372.67;;;9.80;70.21
3748;BME280;1889;50.058;8.688;2023-12-20T10:36:10;100376.88;;;9.97;69.74
3748;BME280;1889;50.058;8.688;2023-12-20T10:38:42;100366.75;;;9.99;69.66
3748;BME280;1889;50.058;8.688;2023-12-20T10:41:14;100361.38;;;9.71;69.10
3748;BME280;1889;50.058;8.688;2023-12-20T10:43:45;100349.16;;;9.65;70.00
3748;BME280;1889;50.058;8.688;2023-12-20T10:46:16;100334.96;;;9.81;69.92
3748;BME280;1889;50.058;8.688;2023-12-20T10:48:47;100326.17;;;9.45;70.33
3748;BME280;1889;50.058;8.688;2023-12-20T10:51:18;100326.34;;;9.25;72.20
3748;BME280;1889;50.058;8.688;2023-12-20T10:53:48;100320.12;;;9.35;71.72
3748;BME280;1889;50.058;8.688;2023-12-20T10:56:19;100323.45;;;9.54;71.29
3748;BME280;1889;50.058;8.688;2023-12-20T10:58:51;100315.51;;;9.58;70.97
3748;BME280;1889;50.058;8.688;2023-12-20T11:01:20;100315.95;;;9.58;70.90
3748;BME280;1889;50.058;8.688;2023-12-20T11:03:52;100317.94;;;9.35;71.95
3748;BME280;1889;50.058;8.688;2023-12-20T11:09:28;100315.99;;;9.56;71.48
3748;BME280;1889;50.058;8.688;2023-12-20T11:14:40;100310.61;;;9.66;71.67
3748;BME280;1889;50.058;8.688;2023-12-20T11:17:11;100311.02;;;9.28;71.69
3748;BME280;1889;50.058;8.688;2023-12-20T11:22:33;100313.20;;;9.70;71.50
3748;BME280;1889;50.058;8.688;2023-12-20T11:25:05;100318.39;;;9.75;70.95
3748;BME280;1889;50.058;8.688;2023-12-20T11:27:41;100311.36;;;9.78;70.82
3748;BME280;1889;50.058;8.688;2023-12-20T11:30:14;100315.13;;;9.92;70.02
3748;BME280;1889;50.058;8.688;2023-12-20T11:32:46;100318.99;;;9.98;69.84
3748;BME280;1889;50.058;8.688;2023-12-20T11:35:18;100320.84;;;9.90;70.29
3748;BME280;1889;50.058;8.688;2023-12-20T11:37:49;100320.81;;;9.93;69.57
3748;BME280;1889;50.058;8.688;2023-12-20T11:40:20;100314.50;;;10.08;69.19
3748;BME280;1889;50.058;8.688;2023-12-20T11:42:51;100320.41;;;10.29;68.74
3748;BME280;1889;50.058;8.688;2023-12-20T11:45:24;100312.55;;;10.25;68.72
3748;BME280;1889;50.058;8.688;2023-12-20T11:47:54;100316.48;;;10.26;68.20
3748;BME280;1889;50.058;8.688;2023-12-20T11:50:24;100305.02;;;10.30;67.94
3748;BME280;1889;50.058;8.688;2023-12-20T11:52:54;100304.81;;;10.13;66.45
3748;BME280;1889;50.058;8.688;2023-12-20T11:55:24;100308.69;;;10.16;66.77
3748;BME280;1889;50.058;8.688;2023-12-20T11:57:53;100312.52;;;10.28;66.63
3748;BME280;1889;50.058;8.688;2023-12-20T12:00:22;100314.27;;;10.29;65.66
3748;BME280;1889;50.058;8.688;2023-12-20T12:02:59;100306.81;;;9.91;65.30
3748;BME280;1889;50.058;8.688;2023-12-20T12:05:31;100309.31;;;10.03;64.55
3748;BME280;1889;50.058;8.688;2023-12-20T12:08:00;100305.72;;;10.09;63.35
3748;BME280;1889;50.058;8.688;2023-12-20T12:10:30;100294.24;;;10.14;63.27
3748;BME280;1889;50.058;8.688;2023-12-20T12:13:00;100284.13;;;10.21;62.58
3748;BME280;1889;50.058;8.688;2023-12-20T12:15:29;100283.05;;;10.35;62.61
3748;BME280;1889;50.058;8.688;2023-12-20T12:17:59;100278.19;;;10.04;63.20
3748;BME280;1889;50.058;8.688;2023-12-20T12:20:28;100275.70;;;10.28;62.86
3748;BME280;1889;50.058;8.688;2023-12-20T12:22:59;100271.52;;;10.45;61.78
3748;BME280;1889;50.058;8.688;2023-12-20T12:25:30;100270.20;;;10.45;62.28
3748;BME280;1889;50.058;8.688;2023-12-20T12:28:00;100281.95;;;10.19;62.81
3748;BME280;1889;50.058;8.688;2023-12-20T12:30:29;100281.18;;;10.43;62.28
3748;BME280;1889;50.058;8.688;2023-12-20T12:32:59;100282.95;;;10.41;62.02
3748;BME280;1889;50.058;8.688;2023-12-20T12:35:28;100276.84;;;10.39;62.13
3748;BME280;1889;50.058;8.688;2023-12-20T12:37:59;100280.42;;;10.35;62.29
3748;BME280;1889;50.058;8.688;2023-12-20T12:40:34;100281.08;;;10.49;61.52
3748;BME280;1889;50.058;8.688;2023-12-20T12:43:03;100274.80;;;10.59;61.71
3748;BME280;1889;50.058;8.688;2023-12-20T12:45:34;100271.52;;;10.71;61.36
3748;BME280;1889;50.058;8.688;2023-12-20T12:48:03;100264.43;;;10.77;60.52
3748;BME280;1889;50.058;8.688;2023-12-20T12:50:32;100271.31;;;10.57;60.90
3748;BME280;1889;50.058;8.688;2023-12-20T12:53:02;100261.11;;;10.64;60.64
3748;BME280;1889;50.058;8.688;2023-12-20T12:55:32;100262.62;;;10.52;60.86
3748;BME280;1889;50.058;8.688;2023-12-20T12:58:01;100249.45;;;10.53;60.58
3748;BME280;1889;50.058;8.688;2023-12-20T13:00:31;100248.58;;;10.23;61.61
3748;BME280;1889;50.058;8.688;2023-12-20T13:03:00;100242.73;;;10.32;61.39
3748;BME280;1889;50.058;8.688;2023-12-20T13:05:30;100230.20;;;10.50;60.74
3748;BME280;1889;50.058;8.688;2023-12-20T13:07:59;100229.50;;;10.65;60.10
3748;BME280;1889;50.058;8.688;2023-12-20T13:10:29;100226.66;;;10.52;59.58
3748;BME280;1889;50.058;8.688;2023-12-20T13:12:58;100231.48;;;10.53;59.72
3748;BME280;1889;50.058;8.688;2023-12-20T13:15:27;100220.57;;;10.76;59.70
3748;BME280;1889;50.058;8.688;2023-12-20T13:17:57;100216.30;;;10.68;59.51
3748;BME280;1889;50.058;8.688;2023-12-20T13:20:26;100212.31;;;10.45;61.20
3748;BME280;1889;50.058;8.688;2023-12-20T13:22:55;100211.02;;;10.70;60.11
3748;BME280;1889;50.058;8.688;2023-12-20T13:25:25;100197.33;;;10.75;59.73
3748;BME280;1889;50.058;8.688;2023-12-20T13:27:54;100200.06;;;10.94;59.88
3748;BME280;1889;50.058;8.688;2023-12-20T13:30:23;100205.33;;;10.94;59.75
3748;BME280;1889;50.058;8.688;2023-12-20T13:32:53;100197.52;;;10.88;59.09
3748;BME280;1889;50.058;8.688;2023-12-20T13:35:22;100200.58;;;10.89;59.88
3748;BME280;1889;50.058;8.688;2023-12-20T13:37:51;100194.11;;;11.07;59.85
3748;BME280;1889;50.058;8.688;2023-12-20T13:40:20;100195.59;;;10.98;59.79
3748;BME280;1889;50.058;8.688;2023-12-20T13:42:50;100189.31;;;11.05;59.80